Houyosimaru — JK5572 — position and weather

sailwx.info

Track history (hours):
 
Tides and Currents Weather Stations Pressure Air Temp Water Temp Dewpoint Dewpoint Depression Visibility Wind Speed Wind Dir Waves Ship Positions

Houyosimaru

Last reported at 2018-May-19 23:51 UTC. Time now 2018-May-21 01:23 UTC.
Position N 34°28' E 134°31'.

Length 68 m; draft 4.2 m.

Type: Tanker. MMSI: 431401462.

Date/timePositionNaut miles runAvg speedWind from/ knotsBaromVisibWave heightAir tempDewpointWater temp
2018-May-19 23:51N 34°28' E 134°31'512.5
2018-May-19 23:29N 34°30' E 134°37'612.7
2018-May-19 22:58N 34°32' E 134°44'612.8
2018-May-19 22:30N 34°34' E 134°50'711.7
2018-May-19 21:53N 34°37' E 134°58'4 9.8
2018-May-19 21:30N 34°36' E 135°03'5 9.6
2018-May-19 21:01N 34°32' E 135°05'612.0
2018-May-19 20:30N 34°26' E 135°03'611.9
2018-May-19 20:01N 34°21' E 135°00'510.9
2018-May-19 19:31N 34°15' E 134°59'611.8
2018-May-19 19:00N 34°09' E 134°59'611.8
2018-May-19 18:30N 34°03' E 135°01'611.7
2018-May-19 18:00N 33°58' E 135°02'  
2018-May-16 16:13N 33°51' E 135°02'313.0
2018-May-16 16:00N 33°53' E 134°60'612.9
2018-May-16 15:30N 33°58' E 134°55'813.4
2018-May-16 14:56N 34°04' E 134°49'1213.3
2018-May-16 14:03N 34°13' E 134°40'812.5
2018-May-16 13:24N 34°18' E 134°32'513.0
2018-May-16 13:00N 34°20' E 134°26'78 3.4
2018-May-15 14:17N 34°06' E 132°54'0 0.0
2018-May-15 13:51N 34°06' E 132°54'0 0.0
2018-May-15 13:26N 34°06' E 132°54'0 0.0
2018-May-15 12:59N 34°06' E 132°54'65 5.6
2018-May-15 01:21N 34°26' E 134°09'513.2
2018-May-15 01:00N 34°24' E 134°14'713.3
2018-May-15 00:30N 34°21' E 134°22'713.2
2018-May-14 23:58N 34°19' E 134°30'713.1
2018-May-14 23:28N 34°16' E 134°37'613.4
2018-May-14 23:00N 34°11' E 134°42'713.3
2018-May-14 22:30N 34°06' E 134°47'612.8
2018-May-14 22:00N 34°01' E 134°51'813.1
2018-May-14 21:22N 33°54' E 134°58'104 8.8
2018-May-14 09:34N 34°40' E 136°51'113.8
2018-May-14 09:28N 34°40' E 136°50'613.7
2018-May-14 09:01N 34°46' E 136°46'713.5
2018-May-14 08:31N 34°52' E 136°43'612.1
2018-May-14 08:00N 34°57' E 136°39'0 0.6
2018-May-14 07:31N 34°57' E 136°38'0 0.0
2018-May-14 07:01N 34°57' E 136°38'0 0.0
2018-May-14 06:30N 34°57' E 136°38'0 0.0
2018-May-14 06:01N 34°57' E 136°38'1 2.7
2018-May-14 05:31N 34°57' E 136°40'510.5
2018-May-14 05:00N 34°59' E 136°46'510.0
2018-May-14 04:30N 35°02' E 136°50'1 2.4
2018-May-14 04:00N 35°03' E 136°50'0 0.0
2018-May-14 03:31N 35°03' E 136°50'0 0.0
2018-May-14 03:00N 35°03' E 136°50'0 0.0
2018-May-14 02:31N 35°03' E 136°50'0 0.0
2018-May-14 02:00N 35°03' E 136°50'0 0.0
2018-May-14 01:31N 35°03' E 136°50'0 0.0
2018-May-14 01:01N 35°03' E 136°50'0 0.0
2018-May-14 00:31N 35°03' E 136°50'0 0.0
2018-May-14 00:00N 35°03' E 136°50'0 0.0
2018-May-13 23:31N 35°03' E 136°50'0 0.0
2018-May-13 23:01N 35°03' E 136°50'0 0.0
2018-May-13 22:31N 35°03' E 136°50'0 0.0
2018-May-13 21:59N 35°03' E 136°50'0 0.0
2018-May-13 21:31N 35°03' E 136°50'0 0.0
2018-May-13 20:59N 35°03' E 136°50'0 0.0
2018-May-13 20:30N 35°03' E 136°50'0 0.0
2018-May-13 20:01N 35°03' E 136°50'0 0.0
2018-May-13 19:30N 35°03' E 136°50'0 0.0
2018-May-13 19:00N 35°03' E 136°50'0 0.0
2018-May-13 18:31N 35°03' E 136°50'0 0.0
2018-May-13 18:01N 35°03' E 136°50'0 0.0
2018-May-13 17:31N 35°03' E 136°50'0 0.0
2018-May-13 17:01N 35°03' E 136°50'0 0.0
2018-May-13 16:30N 35°03' E 136°50'0 0.0
2018-May-13 16:01N 35°03' E 136°50'0 0.0
2018-May-13 15:29N 35°03' E 136°50'0 0.0
2018-May-13 14:59N 35°03' E 136°50'0 0.0
2018-May-13 14:30N 35°03' E 136°50'0 0.0
2018-May-13 13:59N 35°03' E 136°50'0 0.0
2018-May-13 13:31N 35°03' E 136°50'0 0.0
2018-May-13 13:00N 35°03' E 136°50'0 0.0
2018-May-13 12:31N 35°03' E 136°50'0 0.0
2018-May-13 12:01N 35°03' E 136°50'0 0.0
2018-May-13 11:30N 35°03' E 136°50'0 0.0
2018-May-13 11:00N 35°03' E 136°50'0 0.0
2018-May-13 10:31N 35°03' E 136°50'0 0.0
2018-May-13 10:00N 35°03' E 136°50'0 0.0
2018-May-13 09:30N 35°03' E 136°50'0 0.0
2018-May-13 09:01N 35°03' E 136°50'0 0.0
2018-May-13 08:30N 35°03' E 136°50'0 0.0
2018-May-13 08:00N 35°03' E 136°50'0 0.0
2018-May-13 07:30N 35°03' E 136°50'0 0.0
2018-May-13 07:00N 35°03' E 136°50'0 0.0
2018-May-13 06:31N 35°03' E 136°50'0 0.0
2018-May-13 06:01N 35°03' E 136°50'0 0.0
2018-May-13 05:31N 35°03' E 136°50'0 0.0
2018-May-13 05:01N 35°03' E 136°50'0 0.0
2018-May-13 04:30N 35°03' E 136°50'0 0.0
2018-May-13 04:00N 35°03' E 136°50'0 0.0
2018-May-13 03:31N 35°03' E 136°50'0 0.0
2018-May-13 03:00N 35°03' E 136°50'0 0.0
2018-May-13 02:30N 35°03' E 136°50'0 0.0
2018-May-13 02:00N 35°03' E 136°50'0 0.0
2018-May-13 01:31N 35°03' E 136°50'0 0.0
2018-May-13 01:01N 35°03' E 136°50'0 0.0
2018-May-13 00:31N 35°03' E 136°50'0 0.0
2018-May-13 00:01N 35°03' E 136°50'0 0.1
2018-May-12 23:31N 35°03' E 136°50'0 0.2
2018-May-12 23:01N 35°03' E 136°50'1 2.6
2018-May-12 22:31N 35°02' E 136°50'4 8.8
2018-May-12 22:01N 34°58' E 136°48'5 9.7
2018-May-12 21:30N 34°53' E 136°46'611.7
2018-May-12 21:01N 34°48' E 136°46'5 9.3
2018-May-12 20:30N 34°43' E 136°46'8012.2
2018-May-12 13:58N 34°34' E 138°22'612.3
2018-May-12 13:27N 34°34' E 138°30'1012.1
2018-May-12 12:39N 34°35' E 138°42'212.2
2018-May-12 12:30N 34°35' E 138°44'911.3
2018-May-12 11:42N 34°36' E 138°55'210.7
2018-May-12 11:30N 34°36' E 138°57'611.5
2018-May-12 11:00N 34°40' E 139°02'812.0
2018-May-12 10:21N 34°47' E 139°08'1811.2
2018-May-12 08:41N 34°58' E 139°26'210.9
2018-May-12 08:30N 34°59' E 139°28'510.7
2018-May-12 08:00N 35°02' E 139°33'611.4
2018-May-12 07:30N 35°05' E 139°39'611.4
2018-May-12 07:00N 35°09' E 139°44'611.7
2018-May-12 06:30N 35°15' E 139°46'612.3
2018-May-12 06:00N 35°20' E 139°43'611.6
2018-May-12 05:30N 35°26' E 139°45'5 9.9
2018-May-12 05:00N 35°30' E 139°47'1 1.5
2018-May-12 04:30N 35°31' E 139°46'0 0.0
2018-May-12 04:00N 35°31' E 139°46'0 0.0
2018-May-12 03:30N 35°31' E 139°46'0 0.0
2018-May-12 02:59N 35°31' E 139°46'0 0.0
2018-May-12 02:30N 35°31' E 139°46'0 0.0
2018-May-12 02:00N 35°31' E 139°46'0 0.0
2018-May-12 01:30N 35°31' E 139°46'0 0.0
2018-May-12 01:00N 35°31' E 139°46'0 0.0
2018-May-12 00:30N 35°31' E 139°46'0 0.0
2018-May-12 00:00N 35°31' E 139°46'2 4.2
2018-May-11 23:30N 35°29' E 139°47'1 1.4
2018-May-11 23:00N 35°29' E 139°46'0 0.0
2018-May-11 22:31N 35°29' E 139°46'0 0.0
2018-May-11 22:00N 35°29' E 139°46'0 0.0
2018-May-11 21:30N 35°29' E 139°46'0 0.0
2018-May-11 21:01N 35°29' E 139°46'0 0.0
2018-May-11 20:29N 35°29' E 139°46'0 0.0
2018-May-11 20:00N 35°29' E 139°46'0 0.1
2018-May-11 19:30N 35°29' E 139°46'0 0.0
2018-May-11 19:00N 35°29' E 139°46'0 0.0
2018-May-11 18:30N 35°29' E 139°46'0 0.0
2018-May-11 18:00N 35°29' E 139°46'0 0.0
2018-May-11 17:30N 35°29' E 139°46'4 8.7
2018-May-11 17:00N 35°24' E 139°46'612.6
2018-May-11 16:30N 35°18' E 139°45'612.7
2018-May-11 16:00N 35°12' E 139°47'612.9
2018-May-11 15:30N 35°06' E 139°45'712.9
2018-May-11 15:00N 35°01' E 139°40'713.6
2018-May-11 14:30N 34°57' E 139°33'1914.2
2018-May-11 13:10N 34°46' E 139°14'214.0
2018-May-11 13:00N 34°45' E 139°12'714.0
2018-May-11 12:28N 34°40' E 139°04'713.6
2018-May-11 11:58N 34°36' E 138°58'714.5
2018-May-11 11:28N 34°34' E 138°49'1413.9
2018-May-11 10:27N 34°34' E 138°32'1013.7
2018-May-11 09:45N 34°34' E 138°20'7512.6
2018-May-11 03:48N 34°41' E 136°50'412.3
2018-May-11 03:30N 34°44' E 136°47'713.0
2018-May-11 03:00N 34°50' E 136°44'713.3
2018-May-11 02:30N 34°56' E 136°41'3 5.0
2018-May-11 02:00N 34°57' E 136°38'0 0.0
2018-May-11 01:30N 34°57' E 136°38'0 0.0
2018-May-11 01:00N 34°57' E 136°38'0 0.0
2018-May-11 00:30N 34°57' E 136°38'0 0.3
2018-May-11 00:00N 34°57' E 136°38'1 2.9
2018-May-10 23:30N 34°57' E 136°40'0 0.0
2018-May-10 22:59N 34°57' E 136°40'0 0.0
2018-May-10 22:30N 34°57' E 136°40'0 0.0
2018-May-10 22:00N 34°57' E 136°40'2 4.4
2018-May-10 21:30N 34°55' E 136°42'612.4
2018-May-10 21:00N 34°50' E 136°45'8311.8
2018-May-10 13:56N 34°34' E 138°25'612.9
2018-May-10 13:26N 34°35' E 138°33'1812.3
2018-May-10 11:59N 34°36' E 138°54'812.3
2018-May-10 11:21N 34°40' E 139°02'812.8
2018-May-10 10:43N 34°47' E 139°08'1112.7
2018-May-10 09:51N 34°54' E 139°18'812.3
2018-May-10 09:13N 34°58' E 139°26'311.7
2018-May-10 09:00N 34°60' E 139°28'612.4
2018-May-10 08:30N 35°03' E 139°35'713.5
2018-May-10 08:00N 35°07' E 139°42'714.2
2018-May-10 07:30N 35°13' E 139°46'613.0
2018-May-10 07:00N 35°19' E 139°43'612.3
2018-May-10 06:30N 35°25' E 139°44'612.3
2018-May-10 06:00N 35°30' E 139°47'1 2.6
2018-May-10 05:30N 35°31' E 139°46'0 0.0
2018-May-10 05:00N 35°31' E 139°46'0 0.0
2018-May-10 04:30N 35°31' E 139°46'0 0.0
2018-May-10 04:00N 35°31' E 139°46'0 0.0
2018-May-10 03:30N 35°31' E 139°46'0 0.0
2018-May-10 03:00N 35°31' E 139°46'0 0.0
2018-May-10 02:30N 35°31' E 139°46'0 0.0
2018-May-10 02:00N 35°31' E 139°46'0 0.0
2018-May-10 01:30N 35°31' E 139°46'0 0.0
2018-May-10 01:00N 35°31' E 139°46'0 0.0
2018-May-10 00:30N 35°31' E 139°46'0 0.1
2018-May-10 00:00N 35°31' E 139°46'  
Track history (hours):
 
Tides and Currents Weather Stations Pressure Air Temp Water Temp Dewpoint Dewpoint Depression Visibility Wind Speed Wind Dir Waves Ship Positions

Houyosimaru

Last reported at 2018-May-19 23:51 UTC. Time now 2018-May-21 01:23 UTC.
Position N 34°28' E 134°31'.

Length 68 m; draft 4.2 m.

Type: Tanker. MMSI: 431401462.

Date/timePositionNaut miles runAvg speedWind from/ knotsBaromVisibWave heightAir tempDewpointWater temp
2018-May-19 23:51N 34°28' E 134°31'512.5
2018-May-19 23:29N 34°30' E 134°37'612.7
2018-May-19 22:58N 34°32' E 134°44'612.8
2018-May-19 22:30N 34°34' E 134°50'711.7
2018-May-19 21:53N 34°37' E 134°58'4 9.8
2018-May-19 21:30N 34°36' E 135°03'5 9.6
2018-May-19 21:01N 34°32' E 135°05'612.0
2018-May-19 20:30N 34°26' E 135°03'611.9
2018-May-19 20:01N 34°21' E 135°00'510.9
2018-May-19 19:31N 34°15' E 134°59'611.8
2018-May-19 19:00N 34°09' E 134°59'611.8
2018-May-19 18:30N 34°03' E 135°01'611.7
2018-May-19 18:00N 33°58' E 135°02'  
2018-May-16 16:13N 33°51' E 135°02'313.0
2018-May-16 16:00N 33°53' E 134°60'612.9
2018-May-16 15:30N 33°58' E 134°55'813.4
2018-May-16 14:56N 34°04' E 134°49'1213.3
2018-May-16 14:03N 34°13' E 134°40'812.5
2018-May-16 13:24N 34°18' E 134°32'513.0
2018-May-16 13:00N 34°20' E 134°26'78 3.4
2018-May-15 14:17N 34°06' E 132°54'0 0.0
2018-May-15 13:51N 34°06' E 132°54'0 0.0
2018-May-15 13:26N 34°06' E 132°54'0 0.0
2018-May-15 12:59N 34°06' E 132°54'65 5.6
2018-May-15 01:21N 34°26' E 134°09'513.2
2018-May-15 01:00N 34°24' E 134°14'713.3
2018-May-15 00:30N 34°21' E 134°22'713.2
2018-May-14 23:58N 34°19' E 134°30'713.1
2018-May-14 23:28N 34°16' E 134°37'613.4
2018-May-14 23:00N 34°11' E 134°42'713.3
2018-May-14 22:30N 34°06' E 134°47'612.8
2018-May-14 22:00N 34°01' E 134°51'813.1
2018-May-14 21:22N 33°54' E 134°58'104 8.8
2018-May-14 09:34N 34°40' E 136°51'113.8
2018-May-14 09:28N 34°40' E 136°50'613.7
2018-May-14 09:01N 34°46' E 136°46'713.5
2018-May-14 08:31N 34°52' E 136°43'612.1
2018-May-14 08:00N 34°57' E 136°39'0 0.6
2018-May-14 07:31N 34°57' E 136°38'0 0.0
2018-May-14 07:01N 34°57' E 136°38'0 0.0
2018-May-14 06:30N 34°57' E 136°38'0 0.0
2018-May-14 06:01N 34°57' E 136°38'1 2.7
2018-May-14 05:31N 34°57' E 136°40'510.5
2018-May-14 05:00N 34°59' E 136°46'510.0
2018-May-14 04:30N 35°02' E 136°50'1 2.4
2018-May-14 04:00N 35°03' E 136°50'0 0.0
2018-May-14 03:31N 35°03' E 136°50'0 0.0
2018-May-14 03:00N 35°03' E 136°50'0 0.0
2018-May-14 02:31N 35°03' E 136°50'0 0.0
2018-May-14 02:00N 35°03' E 136°50'0 0.0
2018-May-14 01:31N 35°03' E 136°50'0 0.0
2018-May-14 01:01N 35°03' E 136°50'0 0.0
2018-May-14 00:31N 35°03' E 136°50'0 0.0
2018-May-14 00:00N 35°03' E 136°50'0 0.0
2018-May-13 23:31N 35°03' E 136°50'0 0.0
2018-May-13 23:01N 35°03' E 136°50'0 0.0
2018-May-13 22:31N 35°03' E 136°50'0 0.0
2018-May-13 21:59N 35°03' E 136°50'0 0.0
2018-May-13 21:31N 35°03' E 136°50'0 0.0
2018-May-13 20:59N 35°03' E 136°50'0 0.0
2018-May-13 20:30N 35°03' E 136°50'0 0.0
2018-May-13 20:01N 35°03' E 136°50'0 0.0
2018-May-13 19:30N 35°03' E 136°50'0 0.0
2018-May-13 19:00N 35°03' E 136°50'0 0.0
2018-May-13 18:31N 35°03' E 136°50'0 0.0
2018-May-13 18:01N 35°03' E 136°50'0 0.0
2018-May-13 17:31N 35°03' E 136°50'0 0.0
2018-May-13 17:01N 35°03' E 136°50'0 0.0
2018-May-13 16:30N 35°03' E 136°50'0 0.0
2018-May-13 16:01N 35°03' E 136°50'0 0.0
2018-May-13 15:29N 35°03' E 136°50'0 0.0
2018-May-13 14:59N 35°03' E 136°50'0 0.0
2018-May-13 14:30N 35°03' E 136°50'0 0.0
2018-May-13 13:59N 35°03' E 136°50'0 0.0
2018-May-13 13:31N 35°03' E 136°50'0 0.0
2018-May-13 13:00N 35°03' E 136°50'0 0.0
2018-May-13 12:31N 35°03' E 136°50'0 0.0
2018-May-13 12:01N 35°03' E 136°50'0 0.0
2018-May-13 11:30N 35°03' E 136°50'0 0.0
2018-May-13 11:00N 35°03' E 136°50'0 0.0
2018-May-13 10:31N 35°03' E 136°50'0 0.0
2018-May-13 10:00N 35°03' E 136°50'0 0.0
2018-May-13 09:30N 35°03' E 136°50'0 0.0
2018-May-13 09:01N 35°03' E 136°50'0 0.0
2018-May-13 08:30N 35°03' E 136°50'0 0.0
2018-May-13 08:00N 35°03' E 136°50'0 0.0
2018-May-13 07:30N 35°03' E 136°50'0 0.0
2018-May-13 07:00N 35°03' E 136°50'0 0.0
2018-May-13 06:31N 35°03' E 136°50'0 0.0
2018-May-13 06:01N 35°03' E 136°50'0 0.0
2018-May-13 05:31N 35°03' E 136°50'0 0.0
2018-May-13 05:01N 35°03' E 136°50'0 0.0
2018-May-13 04:30N 35°03' E 136°50'0 0.0
2018-May-13 04:00N 35°03' E 136°50'0 0.0
2018-May-13 03:31N 35°03' E 136°50'0 0.0
2018-May-13 03:00N 35°03' E 136°50'0 0.0
2018-May-13 02:30N 35°03' E 136°50'0 0.0
2018-May-13 02:00N 35°03' E 136°50'0 0.0
2018-May-13 01:31N 35°03' E 136°50'0 0.0
2018-May-13 01:01N 35°03' E 136°50'0 0.0
2018-May-13 00:31N 35°03' E 136°50'0 0.0
2018-May-13 00:01N 35°03' E 136°50'0 0.1
2018-May-12 23:31N 35°03' E 136°50'0 0.2
2018-May-12 23:01N 35°03' E 136°50'1 2.6
2018-May-12 22:31N 35°02' E 136°50'4 8.8
2018-May-12 22:01N 34°58' E 136°48'5 9.7
2018-May-12 21:30N 34°53' E 136°46'611.7
2018-May-12 21:01N 34°48' E 136°46'5 9.3
2018-May-12 20:30N 34°43' E 136°46'8012.2
2018-May-12 13:58N 34°34' E 138°22'612.3
2018-May-12 13:27N 34°34' E 138°30'1012.1
2018-May-12 12:39N 34°35' E 138°42'212.2
2018-May-12 12:30N 34°35' E 138°44'911.3
2018-May-12 11:42N 34°36' E 138°55'210.7
2018-May-12 11:30N 34°36' E 138°57'611.5
2018-May-12 11:00N 34°40' E 139°02'812.0
2018-May-12 10:21N 34°47' E 139°08'1811.2
2018-May-12 08:41N 34°58' E 139°26'210.9
2018-May-12 08:30N 34°59' E 139°28'510.7
2018-May-12 08:00N 35°02' E 139°33'611.4
2018-May-12 07:30N 35°05' E 139°39'611.4
2018-May-12 07:00N 35°09' E 139°44'611.7
2018-May-12 06:30N 35°15' E 139°46'612.3
2018-May-12 06:00N 35°20' E 139°43'611.6
2018-May-12 05:30N 35°26' E 139°45'5 9.9
2018-May-12 05:00N 35°30' E 139°47'1 1.5
2018-May-12 04:30N 35°31' E 139°46'0 0.0
2018-May-12 04:00N 35°31' E 139°46'0 0.0
2018-May-12 03:30N 35°31' E 139°46'0 0.0
2018-May-12 02:59N 35°31' E 139°46'0 0.0
2018-May-12 02:30N 35°31' E 139°46'0 0.0
2018-May-12 02:00N 35°31' E 139°46'0 0.0
2018-May-12 01:30N 35°31' E 139°46'0 0.0
2018-May-12 01:00N 35°31' E 139°46'0 0.0
2018-May-12 00:30N 35°31' E 139°46'0 0.0
2018-May-12 00:00N 35°31' E 139°46'2 4.2
2018-May-11 23:30N 35°29' E 139°47'1 1.4
2018-May-11 23:00N 35°29' E 139°46'0 0.0
2018-May-11 22:31N 35°29' E 139°46'0 0.0
2018-May-11 22:00N 35°29' E 139°46'0 0.0
2018-May-11 21:30N 35°29' E 139°46'0 0.0
2018-May-11 21:01N 35°29' E 139°46'0 0.0
2018-May-11 20:29N 35°29' E 139°46'0 0.0
2018-May-11 20:00N 35°29' E 139°46'0 0.1
2018-May-11 19:30N 35°29' E 139°46'0 0.0
2018-May-11 19:00N 35°29' E 139°46'0 0.0
2018-May-11 18:30N 35°29' E 139°46'0 0.0
2018-May-11 18:00N 35°29' E 139°46'0 0.0
2018-May-11 17:30N 35°29' E 139°46'4 8.7
2018-May-11 17:00N 35°24' E 139°46'612.6
2018-May-11 16:30N 35°18' E 139°45'612.7
2018-May-11 16:00N 35°12' E 139°47'612.9
2018-May-11 15:30N 35°06' E 139°45'712.9
2018-May-11 15:00N 35°01' E 139°40'713.6
2018-May-11 14:30N 34°57' E 139°33'1914.2
2018-May-11 13:10N 34°46' E 139°14'214.0
2018-May-11 13:00N 34°45' E 139°12'714.0
2018-May-11 12:28N 34°40' E 139°04'713.6
2018-May-11 11:58N 34°36' E 138°58'714.5
2018-May-11 11:28N 34°34' E 138°49'1413.9
2018-May-11 10:27N 34°34' E 138°32'1013.7
2018-May-11 09:45N 34°34' E 138°20'7512.6
2018-May-11 03:48N 34°41' E 136°50'412.3
2018-May-11 03:30N 34°44' E 136°47'713.0
2018-May-11 03:00N 34°50' E 136°44'713.3
2018-May-11 02:30N 34°56' E 136°41'3 5.0
2018-May-11 02:00N 34°57' E 136°38'0 0.0
2018-May-11 01:30N 34°57' E 136°38'0 0.0
2018-May-11 01:00N 34°57' E 136°38'0 0.0
2018-May-11 00:30N 34°57' E 136°38'0 0.3
2018-May-11 00:00N 34°57' E 136°38'1 2.9
2018-May-10 23:30N 34°57' E 136°40'0 0.0
2018-May-10 22:59N 34°57' E 136°40'0 0.0
2018-May-10 22:30N 34°57' E 136°40'0 0.0
2018-May-10 22:00N 34°57' E 136°40'2 4.4
2018-May-10 21:30N 34°55' E 136°42'612.4
2018-May-10 21:00N 34°50' E 136°45'8311.8
2018-May-10 13:56N 34°34' E 138°25'612.9
2018-May-10 13:26N 34°35' E 138°33'1812.3
2018-May-10 11:59N 34°36' E 138°54'812.3
2018-May-10 11:21N 34°40' E 139°02'812.8
2018-May-10 10:43N 34°47' E 139°08'1112.7
2018-May-10 09:51N 34°54' E 139°18'812.3
2018-May-10 09:13N 34°58' E 139°26'311.7
2018-May-10 09:00N 34°60' E 139°28'612.4
2018-May-10 08:30N 35°03' E 139°35'713.5
2018-May-10 08:00N 35°07' E 139°42'714.2
2018-May-10 07:30N 35°13' E 139°46'613.0
2018-May-10 07:00N 35°19' E 139°43'612.3
2018-May-10 06:30N 35°25' E 139°44'612.3
2018-May-10 06:00N 35°30' E 139°47'1 2.6
2018-May-10 05:30N 35°31' E 139°46'0 0.0
2018-May-10 05:00N 35°31' E 139°46'0 0.0
2018-May-10 04:30N 35°31' E 139°46'0 0.0
2018-May-10 04:00N 35°31' E 139°46'0 0.0
2018-May-10 03:30N 35°31' E 139°46'0 0.0
2018-May-10 03:00N 35°31' E 139°46'0 0.0
2018-May-10 02:30N 35°31' E 139°46'0 0.0
2018-May-10 02:00N 35°31' E 139°46'0 0.0
2018-May-10 01:30N 35°31' E 139°46'0 0.0
2018-May-10 01:00N 35°31' E 139°46'0 0.0
2018-May-10 00:30N 35°31' E 139°46'0 0.1
2018-May-10 00:00N 35°31' E 139°46'  

Dump ship's entire track history